createdAt,value
2023-03-20T00:02:22.693Z,4.27
2023-03-20T00:04:51.063Z,4.32
2023-03-20T00:07:19.108Z,4.35
2023-03-20T00:09:47.939Z,4.37
2023-03-20T00:12:18.792Z,4.38
2023-03-20T00:14:46.738Z,4.38
2023-03-20T00:17:20.519Z,4.37
2023-03-20T00:19:48.936Z,4.33
2023-03-20T00:22:16.828Z,4.26
2023-03-20T00:24:44.722Z,4.19
2023-03-20T00:27:15.169Z,4.12
2023-03-20T00:29:44.149Z,4.04
2023-03-20T00:32:13.597Z,3.99
2023-03-20T00:34:41.755Z,3.94
2023-03-20T00:37:11.820Z,3.92
2023-03-20T00:39:41.218Z,3.87
2023-03-20T00:42:20.458Z,3.82
2023-03-20T00:44:56.288Z,3.79
2023-03-20T00:47:25.401Z,3.73
2023-03-20T00:49:55.871Z,3.66
2023-03-20T00:52:24.735Z,3.61
2023-03-20T00:54:53.060Z,3.56
2023-03-20T00:57:27.290Z,3.50
2023-03-20T01:00:06.353Z,3.46
2023-03-20T01:02:34.746Z,3.42
2023-03-20T01:05:03.902Z,3.35
2023-03-20T01:07:31.844Z,3.29
2023-03-20T01:09:59.712Z,3.23
2023-03-20T01:12:28.404Z,3.18
2023-03-20T01:14:58.838Z,3.12
2023-03-20T01:17:28.901Z,3.06
2023-03-20T01:19:56.901Z,3.01
2023-03-20T01:22:24.757Z,2.97
2023-03-20T01:24:52.618Z,2.96
2023-03-20T01:27:20.954Z,2.95
2023-03-20T01:29:48.720Z,2.91
2023-03-20T01:32:19.276Z,2.85
2023-03-20T01:34:47.876Z,2.83
2023-03-20T01:37:33.870Z,2.83
2023-03-20T01:40:02.258Z,2.84
2023-03-20T01:42:30.688Z,2.85
2023-03-20T01:44:58.572Z,2.85
2023-03-20T01:47:27.762Z,2.86
2023-03-20T01:50:32.347Z,2.89
2023-03-20T01:53:06.443Z,2.93
2023-03-20T01:55:37.217Z,2.95
2023-03-20T01:58:09.980Z,2.99
2023-03-20T02:00:38.197Z,3.02
2023-03-20T02:03:08.991Z,3.02
2023-03-20T02:05:38.477Z,3.02
2023-03-20T02:08:16.799Z,3.02
2023-03-20T02:10:46.859Z,3.03
2023-03-20T02:13:16.533Z,3.05
2023-03-20T02:15:57.005Z,3.08
2023-03-20T02:18:25.357Z,3.07
2023-03-20T02:21:30.888Z,3.04
2023-03-20T02:24:38.391Z,3.03
2023-03-20T02:27:20.945Z,3.05
2023-03-20T02:29:54.845Z,3.08
2023-03-20T02:33:00.007Z,3.11
2023-03-20T02:35:43.110Z,3.13
2023-03-20T02:38:22.896Z,3.15
2023-03-20T02:41:03.278Z,3.15
2023-03-20T02:44:00.172Z,3.16
2023-03-20T02:46:57.705Z,3.17
2023-03-20T02:49:54.058Z,3.15
2023-03-20T02:52:39.883Z,3.14
2023-03-20T02:55:26.712Z,3.15
2023-03-20T02:58:21.302Z,3.14
2023-03-20T03:01:10.503Z,3.14
2023-03-20T03:03:46.496Z,3.14
2023-03-20T03:06:30.148Z,3.14
2023-03-20T03:09:06.728Z,3.13
2023-03-20T03:11:39.717Z,3.14
2023-03-20T03:14:14.444Z,3.16
2023-03-20T03:16:45.829Z,3.16
2023-03-20T03:19:19.505Z,3.16
2023-03-20T03:21:48.911Z,3.17
2023-03-20T03:24:39.305Z,3.19
2023-03-20T03:27:53.478Z,3.20
2023-03-20T03:30:28.037Z,3.20
2023-03-20T03:33:23.968Z,3.18
2023-03-20T03:35:59.455Z,3.17
2023-03-20T03:38:33.922Z,3.18
2023-03-20T03:41:13.709Z,3.19
2023-03-20T03:43:49.568Z,3.19
2023-03-20T03:46:27.386Z,3.22
2023-03-20T03:48:57.862Z,3.23
2023-03-20T03:51:30.630Z,3.23
2023-03-20T03:54:08.310Z,3.21
2023-03-20T03:56:40.777Z,3.19
2023-03-20T03:59:15.684Z,3.15
2023-03-20T04:01:44.496Z,3.11
2023-03-20T04:04:16.199Z,3.09
2023-03-20T04:06:44.099Z,3.06
2023-03-20T04:09:11.984Z,3.04
2023-03-20T04:11:40.095Z,3.04
2023-03-20T04:14:08.004Z,3.07
2023-03-20T04:16:36.063Z,3.11
2023-03-20T04:19:03.926Z,3.15
2023-03-20T04:21:31.810Z,3.18
2023-03-20T04:23:59.670Z,3.23
2023-03-20T04:26:27.484Z,3.27
2023-03-20T04:28:55.404Z,3.28
2023-03-20T04:31:23.771Z,3.27
2023-03-20T04:33:52.241Z,3.27
2023-03-20T04:36:20.125Z,3.27
2023-03-20T04:38:48.125Z,3.28
2023-03-20T04:41:16.170Z,3.30
2023-03-20T04:43:44.187Z,3.33
2023-03-20T04:46:12.269Z,3.38
2023-03-20T04:48:40.165Z,3.41
2023-03-20T04:51:08.158Z,3.43
2023-03-20T04:53:36.739Z,3.44
2023-03-20T04:56:04.852Z,3.45
2023-03-20T04:58:33.401Z,3.46
2023-03-20T05:01:01.365Z,3.45
2023-03-20T05:03:29.244Z,3.45
2023-03-20T05:05:57.277Z,3.46
2023-03-20T05:08:25.882Z,3.50
2023-03-20T05:10:53.797Z,3.55
2023-03-20T05:13:21.742Z,3.59
2023-03-20T05:15:49.601Z,3.63
2023-03-20T05:18:17.596Z,3.68
2023-03-20T05:20:45.790Z,3.72
2023-03-20T05:23:13.590Z,3.77
2023-03-20T05:25:41.450Z,3.82
2023-03-20T05:28:09.310Z,3.82
2023-03-20T05:30:37.319Z,3.82
2023-03-20T05:33:06.702Z,3.84
2023-03-20T05:35:35.309Z,3.88
2023-03-20T05:38:06.765Z,3.92
2023-03-20T05:40:34.720Z,3.96
2023-03-20T05:43:02.620Z,4.00
2023-03-20T05:45:30.630Z,4.03
2023-03-20T05:47:58.476Z,4.07
2023-03-20T05:50:26.544Z,4.10
2023-03-20T05:52:54.510Z,4.15
2023-03-20T05:55:22.932Z,4.22
2023-03-20T05:57:51.000Z,4.29
2023-03-20T06:00:20.388Z,4.38
2023-03-20T06:02:48.367Z,4.48
2023-03-20T06:05:16.538Z,4.60
2023-03-20T06:07:44.405Z,4.72
2023-03-20T06:10:12.578Z,4.81
2023-03-20T06:12:40.834Z,4.87
2023-03-20T06:15:09.041Z,4.91
2023-03-20T06:17:36.981Z,4.96
2023-03-20T06:20:05.780Z,5.02
2023-03-20T06:22:33.681Z,5.06
2023-03-20T06:25:01.861Z,5.10
2023-03-20T06:27:31.258Z,5.14
2023-03-20T06:29:59.191Z,5.19
2023-03-20T06:32:27.347Z,5.23
2023-03-20T06:34:55.364Z,5.27
2023-03-20T06:37:23.572Z,5.33
2023-03-20T06:39:51.625Z,5.39
2023-03-20T06:42:19.473Z,5.46
2023-03-20T06:44:47.568Z,5.51
2023-03-20T06:47:15.992Z,5.55
2023-03-20T06:49:45.919Z,5.61
2023-03-20T06:52:19.926Z,5.67
2023-03-20T06:54:47.716Z,5.74
2023-03-20T06:57:17.736Z,5.81
2023-03-20T06:59:45.606Z,5.88
2023-03-20T07:02:13.765Z,5.94
2023-03-20T07:04:41.984Z,5.99
2023-03-20T07:07:10.082Z,6.06
2023-03-20T07:09:37.938Z,6.13
2023-03-20T07:12:05.975Z,6.21
2023-03-20T07:14:33.903Z,6.28
2023-03-20T07:17:01.786Z,6.37
2023-03-20T07:19:29.889Z,6.48
2023-03-20T07:22:02.674Z,6.58
2023-03-20T07:24:32.220Z,6.66
2023-03-20T07:27:00.584Z,6.75
2023-03-20T07:29:28.892Z,6.84
2023-03-20T07:31:57.187Z,6.97
2023-03-20T07:34:25.218Z,7.12
2023-03-20T07:36:53.219Z,7.27
2023-03-20T07:39:21.947Z,7.46
2023-03-20T07:41:49.814Z,7.60
2023-03-20T07:44:19.362Z,7.73
2023-03-20T07:46:47.666Z,7.86
2023-03-20T07:49:18.536Z,8.00
2023-03-20T07:51:48.116Z,8.15
2023-03-20T07:54:16.782Z,8.29
2023-03-20T07:56:44.749Z,8.40
2023-03-20T07:59:13.866Z,8.49
2023-03-20T08:01:41.809Z,8.60
2023-03-20T08:04:09.717Z,8.73
2023-03-20T08:06:39.513Z,8.85
2023-03-20T08:09:07.698Z,8.95
2023-03-20T08:11:35.774Z,9.05
2023-03-20T08:14:03.535Z,9.17
2023-03-20T08:16:31.878Z,9.29
2023-03-20T08:19:01.720Z,9.43
2023-03-20T08:21:30.602Z,9.63
2023-03-20T08:23:58.726Z,9.84
2023-03-20T08:26:26.689Z,10.03
2023-03-20T08:28:54.738Z,10.15
2023-03-20T08:31:23.144Z,10.26
2023-03-20T08:33:52.110Z,10.45
2023-03-20T08:36:20.866Z,10.66
2023-03-20T08:38:49.810Z,10.88
2023-03-20T08:41:19.072Z,11.12
2023-03-20T08:43:48.099Z,11.33
2023-03-20T08:46:16.072Z,11.56
2023-03-20T08:48:43.950Z,11.80
2023-03-20T08:51:11.981Z,12.01
2023-03-20T08:53:40.125Z,12.21
2023-03-20T08:56:08.891Z,12.37
2023-03-20T08:58:37.046Z,12.49
2023-03-20T09:01:07.986Z,12.61
2023-03-20T09:03:37.052Z,12.71
2023-03-20T09:06:07.031Z,12.78
2023-03-20T09:08:35.524Z,12.86
2023-03-20T09:11:05.248Z,12.93
2023-03-20T09:13:33.126Z,12.97
2023-03-20T09:16:01.255Z,13.01
2023-03-20T09:18:29.268Z,13.04
2023-03-20T09:20:57.284Z,13.10
2023-03-20T09:23:25.557Z,13.16
2023-03-20T09:25:53.514Z,13.25
2023-03-20T09:28:21.565Z,13.31
2023-03-20T09:30:49.513Z,13.36
2023-03-20T09:33:18.661Z,13.42
2023-03-20T09:35:47.066Z,13.45
2023-03-20T09:38:15.583Z,13.48
2023-03-20T09:41:03.841Z,13.50
2023-03-20T09:44:05.764Z,13.55
2023-03-20T09:46:49.414Z,13.66
2023-03-20T09:49:35.434Z,13.81
2023-03-20T09:52:27.913Z,13.97
2023-03-20T09:55:04.339Z,14.13
2023-03-20T09:57:40.410Z,14.27
2023-03-20T10:00:18.825Z,14.38
2023-03-20T10:02:54.460Z,14.49
2023-03-20T10:05:29.713Z,14.65
2023-03-20T10:08:03.357Z,14.79
2023-03-20T10:10:50.539Z,14.89
2023-03-20T10:13:46.262Z,15.02
2023-03-20T10:16:26.611Z,15.20
2023-03-20T10:19:02.086Z,15.37
2023-03-20T10:21:44.871Z,15.56
2023-03-20T10:24:37.242Z,15.74
2023-03-20T10:27:18.479Z,15.95
2023-03-20T10:29:58.240Z,16.08
2023-03-20T10:32:34.031Z,16.16
2023-03-20T10:35:18.715Z,16.28
2023-03-20T10:38:01.863Z,16.42
2023-03-20T10:40:36.825Z,16.58
2023-03-20T10:43:21.465Z,16.65
2023-03-20T10:45:57.738Z,16.76
2023-03-20T10:48:43.527Z,16.84
2023-03-20T10:51:16.506Z,16.95
2023-03-20T10:53:51.958Z,17.07
2023-03-20T10:56:47.019Z,17.16
2023-03-20T10:59:17.955Z,17.25
2023-03-20T11:01:46.774Z,17.32
2023-03-20T11:04:14.749Z,17.38
2023-03-20T11:06:57.692Z,17.43
2023-03-20T11:09:27.848Z,17.47
2023-03-20T11:12:01.579Z,17.50
2023-03-20T11:14:35.870Z,17.53
2023-03-20T11:17:05.376Z,17.54
2023-03-20T11:19:36.176Z,17.51
2023-03-20T11:22:19.301Z,17.45
2023-03-20T11:24:51.276Z,17.38
2023-03-20T11:27:28.627Z,17.32
2023-03-20T11:29:59.536Z,17.28
2023-03-20T11:32:41.047Z,17.27
2023-03-20T11:35:28.378Z,17.29
2023-03-20T11:38:13.908Z,17.34
2023-03-20T11:40:42.055Z,17.35
2023-03-20T11:43:23.605Z,17.29
2023-03-20T11:45:56.795Z,17.22
2023-03-20T11:48:36.233Z,17.16
2023-03-20T11:51:11.198Z,17.15
2023-03-20T11:53:54.515Z,17.14
2023-03-20T11:56:29.027Z,17.15
2023-03-20T11:58:58.749Z,17.17
2023-03-20T12:01:28.322Z,17.15
2023-03-20T12:04:07.196Z,17.14
2023-03-20T12:06:59.643Z,17.15
2023-03-20T12:09:39.377Z,17.16
2023-03-20T12:12:46.817Z,17.21
2023-03-20T12:15:26.517Z,17.25
2023-03-20T12:18:08.781Z,17.25
2023-03-20T12:20:39.409Z,17.20
2023-03-20T12:23:11.161Z,17.14
2023-03-20T12:26:02.327Z,17.15
2023-03-20T12:28:51.872Z,17.16
2023-03-20T12:31:47.460Z,17.20
2023-03-20T12:34:28.111Z,17.18
2023-03-20T12:36:58.873Z,17.13
2023-03-20T12:39:41.463Z,17.11
2023-03-20T12:42:23.628Z,17.11
2023-03-20T12:45:07.058Z,17.16
2023-03-20T12:48:15.849Z,17.22
2023-03-20T12:50:56.033Z,17.30
2023-03-20T12:53:31.514Z,17.38
2023-03-20T12:56:15.822Z,17.48
2023-03-20T12:58:48.585Z,17.55
2023-03-20T13:01:21.789Z,17.59
2023-03-20T13:04:48.582Z,17.66
2023-03-20T13:07:21.838Z,17.67
2023-03-20T13:09:54.567Z,17.66
2023-03-20T13:12:47.100Z,17.69
2023-03-20T13:15:18.015Z,17.72
2023-03-20T13:18:06.875Z,17.75
2023-03-20T13:20:46.243Z,17.77
2023-03-20T13:23:38.791Z,17.75
2023-03-20T13:26:42.264Z,17.69
2023-03-20T13:29:30.702Z,17.69
2023-03-20T13:32:12.197Z,17.70
2023-03-20T13:34:50.152Z,17.76
2023-03-20T13:37:37.486Z,17.80
2023-03-20T13:40:12.081Z,17.80
2023-03-20T13:42:51.139Z,17.80
2023-03-20T13:45:31.377Z,17.81
2023-03-20T13:48:22.454Z,17.78
2023-03-20T13:51:06.852Z,17.73
2023-03-20T13:53:53.043Z,17.71
2023-03-20T13:56:31.074Z,17.67
2023-03-20T13:59:10.709Z,17.64
2023-03-20T14:01:50.869Z,17.63
2023-03-20T14:04:23.241Z,17.64
2023-03-20T14:06:57.080Z,17.65
2023-03-20T14:09:35.868Z,17.68
2023-03-20T14:12:10.979Z,17.69
2023-03-20T14:15:08.318Z,17.75
2023-03-20T14:17:36.708Z,17.81
2023-03-20T14:20:23.578Z,17.84
2023-03-20T14:22:51.995Z,17.87
2023-03-20T14:25:23.851Z,17.89
2023-03-20T14:28:00.197Z,17.90
2023-03-20T14:30:31.195Z,17.90
2023-03-20T14:33:00.410Z,17.90
2023-03-20T14:35:29.543Z,17.88
2023-03-20T14:38:20.768Z,17.85
2023-03-20T14:41:06.886Z,17.80
2023-03-20T14:43:59.128Z,17.70
2023-03-20T14:46:53.640Z,17.57
2023-03-20T14:49:33.846Z,17.44
2023-03-20T14:52:13.698Z,17.30
2023-03-20T14:54:41.825Z,17.19
2023-03-20T14:57:30.326Z,17.07
2023-03-20T14:59:59.397Z,16.96
2023-03-20T15:02:30.562Z,16.86
2023-03-20T15:04:58.994Z,16.78
2023-03-20T15:07:30.587Z,16.69
2023-03-20T15:10:03.038Z,16.62
2023-03-20T15:12:36.385Z,16.55
2023-03-20T15:15:23.300Z,16.48
2023-03-20T15:17:51.271Z,16.42
2023-03-20T15:20:21.494Z,16.36
2023-03-20T15:22:58.401Z,16.31
2023-03-20T15:25:43.840Z,16.26
2023-03-20T15:28:19.897Z,16.21
2023-03-20T15:30:50.735Z,16.18
2023-03-20T15:33:27.652Z,16.13
2023-03-20T15:35:56.245Z,16.08
2023-03-20T15:38:31.891Z,16.03
2023-03-20T15:40:59.950Z,15.98
2023-03-20T15:43:31.510Z,15.93
2023-03-20T15:46:16.839Z,15.85
2023-03-20T15:48:49.784Z,15.78
2023-03-20T15:51:19.244Z,15.69
2023-03-20T15:53:49.397Z,15.59
2023-03-20T15:56:20.124Z,15.52
2023-03-20T15:58:52.506Z,15.43
2023-03-20T16:01:23.300Z,15.35
2023-03-20T16:03:52.925Z,15.27
2023-03-20T16:06:24.304Z,15.18
2023-03-20T16:09:06.867Z,15.08
2023-03-20T16:11:40.755Z,15.00
2023-03-20T16:14:31.645Z,14.93
2023-03-20T16:17:02.117Z,14.85
2023-03-20T16:19:31.081Z,14.78
2023-03-20T16:22:04.020Z,14.70
2023-03-20T16:24:38.590Z,14.63
2023-03-20T16:27:09.154Z,14.56
2023-03-20T16:29:42.794Z,14.49
2023-03-20T16:32:44.045Z,14.42
2023-03-20T16:35:20.028Z,14.32
2023-03-20T16:38:00.313Z,14.25
2023-03-20T16:40:28.695Z,14.18
2023-03-20T16:42:57.713Z,14.13
2023-03-20T16:45:33.691Z,14.08
2023-03-20T16:48:10.588Z,14.03
2023-03-20T16:50:41.535Z,13.96
2023-03-20T16:53:16.623Z,13.92
2023-03-20T16:55:47.799Z,13.88
2023-03-20T16:58:20.834Z,13.84
2023-03-20T17:00:58.226Z,13.80
2023-03-20T17:03:29.929Z,13.77
2023-03-20T17:05:59.626Z,13.74
2023-03-20T17:08:41.703Z,13.71
2023-03-20T17:11:17.806Z,13.67
2023-03-20T17:13:46.366Z,13.64
2023-03-20T17:16:20.983Z,13.60
2023-03-20T17:19:04.483Z,13.53
2023-03-20T17:21:32.382Z,13.46
2023-03-20T17:24:00.789Z,13.40
2023-03-20T17:26:29.404Z,13.37
2023-03-20T17:28:58.056Z,13.34
2023-03-20T17:31:26.092Z,13.31
2023-03-20T17:33:54.109Z,13.28
2023-03-20T17:36:27.644Z,13.26
2023-03-20T17:38:57.197Z,13.23
2023-03-20T17:41:26.288Z,13.19
2023-03-20T17:43:56.686Z,13.16
2023-03-20T17:46:28.256Z,13.13
2023-03-20T17:49:06.114Z,13.11
2023-03-20T17:51:35.400Z,13.09
2023-03-20T17:54:05.582Z,13.07
2023-03-20T17:56:35.405Z,13.04
2023-03-20T17:59:04.208Z,13.01
2023-03-20T18:01:33.010Z,12.99
2023-03-20T18:04:01.192Z,12.98
2023-03-20T18:06:32.380Z,12.97
2023-03-20T18:09:01.827Z,12.95
2023-03-20T18:11:30.034Z,12.93
2023-03-20T18:13:58.022Z,12.92
2023-03-20T18:16:27.373Z,12.90
2023-03-20T18:18:55.528Z,12.88
2023-03-20T18:21:23.437Z,12.87
2023-03-20T18:23:51.505Z,12.85
2023-03-20T18:26:25.408Z,12.85
2023-03-20T18:28:54.366Z,12.84
2023-03-20T18:31:22.576Z,12.83
2023-03-20T18:33:52.778Z,12.80
2023-03-20T18:36:24.595Z,12.77
2023-03-20T18:38:52.810Z,12.74
2023-03-20T18:41:21.260Z,12.71
2023-03-20T18:43:49.502Z,12.69
2023-03-20T18:46:22.491Z,12.66
2023-03-20T18:48:52.165Z,12.65
2023-03-20T18:51:24.451Z,12.64
2023-03-20T18:53:52.595Z,12.64
2023-03-20T18:56:25.545Z,12.63
2023-03-20T18:58:54.019Z,12.62
2023-03-20T19:01:22.037Z,12.62
2023-03-20T19:03:50.433Z,12.61
2023-03-20T19:06:21.171Z,12.61
2023-03-20T19:08:51.195Z,12.62
2023-03-20T19:11:21.510Z,12.62
2023-03-20T19:13:53.939Z,12.62
2023-03-20T19:16:24.304Z,12.60
2023-03-20T19:18:54.397Z,12.58
2023-03-20T19:21:26.388Z,12.55
2023-03-20T19:23:56.734Z,12.51
2023-03-20T19:26:28.298Z,12.47
2023-03-20T19:28:58.808Z,12.42
2023-03-20T19:31:27.890Z,12.39
2023-03-20T19:33:58.626Z,12.37
2023-03-20T19:36:35.793Z,12.34
2023-03-20T19:39:06.855Z,12.32
2023-03-20T19:41:34.876Z,12.29
2023-03-20T19:44:02.923Z,12.27
2023-03-20T19:46:40.795Z,12.25
2023-03-20T19:49:20.959Z,12.23
2023-03-20T19:51:49.449Z,12.21
2023-03-20T19:54:17.858Z,12.18
2023-03-20T19:56:46.107Z,12.14
2023-03-20T19:59:16.501Z,12.12
2023-03-20T20:01:46.091Z,12.09
2023-03-20T20:04:14.355Z,12.05
2023-03-20T20:06:42.374Z,12.00
2023-03-20T20:09:10.928Z,11.95
2023-03-20T20:11:39.066Z,11.90
2023-03-20T20:14:10.587Z,11.84
2023-03-20T20:16:42.936Z,11.79
2023-03-20T20:19:11.667Z,11.74
2023-03-20T20:22:17.263Z,11.70
2023-03-20T20:24:27.739Z,11.67
2023-03-20T20:27:15.319Z,11.65
2023-03-20T20:29:49.634Z,11.62
2023-03-20T20:32:19.720Z,11.60
2023-03-20T20:40:27.928Z,11.54
2023-03-20T20:43:01.458Z,11.53
2023-03-20T20:45:31.599Z,11.50
2023-03-20T20:48:00.430Z,11.49
2023-03-20T20:50:30.884Z,11.48
2023-03-20T20:52:59.659Z,11.47
2023-03-20T20:55:27.652Z,11.46
2023-03-20T20:57:56.670Z,11.45
2023-03-20T21:00:41.047Z,11.42
2023-03-20T21:03:13.613Z,11.40
2023-03-20T21:05:43.484Z,11.38
2023-03-20T21:08:13.521Z,11.37
2023-03-20T21:10:41.720Z,11.36
2023-03-20T21:13:09.842Z,11.34
2023-03-20T21:15:38.373Z,11.32
2023-03-20T21:18:06.576Z,11.30
2023-03-20T21:20:34.546Z,11.29
2023-03-20T21:23:02.570Z,11.27
2023-03-20T21:25:47.733Z,11.25
2023-03-20T21:28:16.570Z,11.22
2023-03-20T21:31:09.134Z,11.20
2023-03-20T21:33:36.652Z,11.17
2023-03-20T21:36:06.564Z,11.14
2023-03-20T21:41:22.848Z,11.10
2023-03-20T21:43:51.009Z,11.10
2023-03-20T21:47:01.654Z,11.10
2023-03-20T21:55:22.364Z,11.08
2023-03-20T21:58:18.373Z,11.06
2023-03-20T22:01:19.670Z,11.04
2023-03-20T22:03:28.807Z,11.00
2023-03-20T22:06:50.699Z,10.96
2023-03-20T22:09:45.745Z,10.93
2023-03-20T22:26:32.203Z,10.90
2023-03-20T22:31:53.668Z,10.88
2023-03-20T22:40:33.604Z,10.82
2023-03-20T22:45:19.840Z,10.80
2023-03-20T22:47:47.908Z,10.78
2023-03-20T22:50:16.849Z,10.77
2023-03-20T22:52:49.569Z,10.74
2023-03-20T22:55:18.307Z,10.72
2023-03-20T22:57:59.801Z,10.70
2023-03-20T23:00:34.283Z,10.70
2023-03-20T23:03:17.230Z,10.70
2023-03-20T23:05:48.302Z,10.70
2023-03-20T23:08:16.211Z,10.70
2023-03-20T23:10:50.224Z,10.71
2023-03-20T23:13:20.457Z,10.72
2023-03-20T23:15:50.650Z,10.70
2023-03-20T23:18:18.591Z,10.67
2023-03-20T23:20:46.480Z,10.64
2023-03-20T23:23:14.468Z,10.62
2023-03-20T23:25:42.584Z,10.59
2023-03-20T23:28:10.905Z,10.55
2023-03-20T23:30:46.522Z,10.50
2023-03-20T23:33:17.720Z,10.47
2023-03-20T23:35:45.784Z,10.43
2023-03-20T23:38:13.614Z,10.41
2023-03-20T23:40:42.127Z,10.40
2023-03-20T23:43:09.946Z,10.41
2023-03-20T23:45:37.984Z,10.42
2023-03-20T23:48:06.245Z,10.43
2023-03-20T23:50:49.651Z,10.43
2023-03-20T23:53:21.074Z,10.41
2023-03-20T23:55:52.074Z,10.40
2023-03-20T23:58:21.266Z,10.38
